createdAt,value
2019-01-17T00:01:28.767Z,10.37
2019-01-17T00:04:16.875Z,8.63
2019-01-17T00:06:52.400Z,8.93
2019-01-17T00:09:37.843Z,10.13
2019-01-17T00:12:10.810Z,9.03
2019-01-17T00:14:49.932Z,8.30
2019-01-17T00:17:28.885Z,8.63
2019-01-17T00:20:01.680Z,8.90
2019-01-17T00:22:31.760Z,8.97
2019-01-17T00:25:01.861Z,8.17
2019-01-17T00:27:34.945Z,5.83
2019-01-17T00:30:18.096Z,5.50
2019-01-17T00:33:04.747Z,5.93
2019-01-17T00:35:49.976Z,5.63
2019-01-17T00:38:36.002Z,5.77
2019-01-17T00:41:06.233Z,6.83
2019-01-17T00:43:36.391Z,7.30
2019-01-17T00:46:19.304Z,7.20
2019-01-17T00:48:55.332Z,5.10
2019-01-17T00:51:28.544Z,6.13
2019-01-17T00:54:01.665Z,6.93
2019-01-17T00:56:46.715Z,5.63
2019-01-17T00:59:22.703Z,6.10
2019-01-17T01:01:55.581Z,6.60
2019-01-17T01:04:28.762Z,7.17
2019-01-17T01:07:04.568Z,5.67
2019-01-17T01:09:51.149Z,5.27
2019-01-17T01:12:21.261Z,5.13
2019-01-17T01:14:54.387Z,6.43
2019-01-17T01:17:24.824Z,5.83
2019-01-17T01:20:04.008Z,7.17
2019-01-17T01:22:49.184Z,5.30
2019-01-17T01:25:19.300Z,6.10
2019-01-17T01:28:05.801Z,5.50
2019-01-17T01:30:35.954Z,7.07
2019-01-17T01:33:09.141Z,4.73
2019-01-17T01:35:55.663Z,5.17
2019-01-17T01:38:25.761Z,6.13
2019-01-17T01:40:55.832Z,6.13
2019-01-17T01:43:28.627Z,5.47
2019-01-17T01:46:01.767Z,5.43
2019-01-17T01:48:31.848Z,6.10
2019-01-17T01:51:08.248Z,5.03
2019-01-17T01:53:36.745Z,4.73
2019-01-17T01:56:05.437Z,5.07
2019-01-17T01:58:33.872Z,4.30
2019-01-17T02:01:02.459Z,5.07
2019-01-17T02:03:30.947Z,6.00
2019-01-17T02:05:59.396Z,4.80
2019-01-17T02:08:27.843Z,5.33
2019-01-17T02:10:56.367Z,6.27
2019-01-17T02:13:25.159Z,5.33
2019-01-17T02:15:53.622Z,7.53
2019-01-17T02:18:22.057Z,6.43
2019-01-17T02:20:50.507Z,7.33
2019-01-17T02:23:19.784Z,6.77
2019-01-17T02:25:48.379Z,6.30
2019-01-17T02:28:16.822Z,6.87
2019-01-17T02:30:45.736Z,6.00
2019-01-17T02:33:14.176Z,6.63
2019-01-17T02:35:42.616Z,8.63
2019-01-17T02:38:11.075Z,8.20
2019-01-17T02:40:39.586Z,8.07
2019-01-17T02:43:08.040Z,9.40
2019-01-17T02:45:36.480Z,9.47
2019-01-17T02:48:05.003Z,10.47
2019-01-17T02:50:33.452Z,9.33
2019-01-17T02:53:01.895Z,9.47
2019-01-17T02:55:30.404Z,9.57
2019-01-17T02:57:58.861Z,13.23
2019-01-17T03:00:27.314Z,10.93
2019-01-17T03:02:55.768Z,12.03
2019-01-17T03:05:24.273Z,12.33
2019-01-17T03:07:52.714Z,10.57
2019-01-17T03:10:21.190Z,12.23
2019-01-17T03:12:49.623Z,12.07
2019-01-17T03:15:18.071Z,15.17
2019-01-17T03:17:46.673Z,12.80
2019-01-17T03:20:15.272Z,10.93
2019-01-17T03:22:43.843Z,11.70
2019-01-17T03:25:12.853Z,11.90
2019-01-17T03:27:41.433Z,12.23
2019-01-17T03:30:15.528Z,11.50
2019-01-17T03:32:44.171Z,11.83
2019-01-17T03:35:13.176Z,11.13
2019-01-17T03:37:41.681Z,11.87
2019-01-17T03:40:13.378Z,11.33
2019-01-17T03:42:42.141Z,12.23
2019-01-17T03:45:12.529Z,11.67
2019-01-17T03:47:41.335Z,11.60
2019-01-17T03:50:12.480Z,9.13
2019-01-17T03:52:41.079Z,10.23
2019-01-17T03:55:12.228Z,10.37
2019-01-17T03:57:40.831Z,11.13
2019-01-17T04:00:12.336Z,9.07
2019-01-17T04:02:40.811Z,10.07
2019-01-17T04:05:09.312Z,10.97
2019-01-17T04:07:37.859Z,12.13
2019-01-17T04:10:09.632Z,10.33
2019-01-17T04:12:38.090Z,10.83
2019-01-17T04:15:08.471Z,9.17
2019-01-17T04:17:37.037Z,9.93
2019-01-17T04:20:08.557Z,10.20
2019-01-17T04:22:37.062Z,11.30
2019-01-17T04:25:07.544Z,12.40
2019-01-17T04:27:36.149Z,12.00
2019-01-17T04:30:07.680Z,12.80
2019-01-17T04:32:36.122Z,10.10
2019-01-17T04:35:05.512Z,10.70
2019-01-17T04:37:34.017Z,10.53
2019-01-17T04:40:02.493Z,12.53
2019-01-17T04:42:30.934Z,12.30
2019-01-17T04:44:59.392Z,13.20
2019-01-17T04:47:27.825Z,11.07
2019-01-17T04:49:56.284Z,11.93
2019-01-17T04:52:24.797Z,11.27
2019-01-17T04:54:53.305Z,11.63
2019-01-17T04:57:21.765Z,11.07
2019-01-17T04:59:50.200Z,8.77
2019-01-17T05:02:18.880Z,10.20
2019-01-17T05:04:47.322Z,7.63
2019-01-17T05:07:15.836Z,10.17
2019-01-17T05:09:44.276Z,10.93
2019-01-17T05:12:12.728Z,9.33
2019-01-17T05:14:41.171Z,10.63
2019-01-17T05:17:09.642Z,11.30
2019-01-17T05:19:38.156Z,8.77
2019-01-17T05:22:06.870Z,10.87
2019-01-17T05:24:35.307Z,10.80
2019-01-17T05:27:04.010Z,11.40
2019-01-17T05:29:32.444Z,10.30
2019-01-17T05:32:00.907Z,10.47
2019-01-17T05:34:29.351Z,9.27
2019-01-17T05:36:57.806Z,11.37
2019-01-17T05:39:26.236Z,10.57
2019-01-17T05:41:54.702Z,10.33
2019-01-17T05:44:23.211Z,9.30
2019-01-17T05:46:51.730Z,10.40
2019-01-17T05:49:20.177Z,12.67
2019-01-17T05:51:48.635Z,10.20
2019-01-17T05:54:18.024Z,11.00
2019-01-17T05:56:46.616Z,10.33
2019-01-17T05:59:15.052Z,10.13
2019-01-17T06:01:43.621Z,11.73
2019-01-17T06:04:12.868Z,10.37
2019-01-17T06:06:41.310Z,9.27
2019-01-17T06:09:09.836Z,8.10
2019-01-17T06:11:38.281Z,8.07
2019-01-17T06:14:06.808Z,6.40
2019-01-17T06:16:35.239Z,6.83
2019-01-17T06:19:04.049Z,7.80
2019-01-17T06:21:32.651Z,8.40
2019-01-17T06:24:01.113Z,9.10
2019-01-17T06:26:29.684Z,8.50
2019-01-17T06:28:58.917Z,8.07
2019-01-17T06:31:27.424Z,8.23
2019-01-17T06:33:56.141Z,6.27
2019-01-17T06:36:24.581Z,6.63
2019-01-17T06:38:53.064Z,8.03
2019-01-17T06:41:21.500Z,6.00
2019-01-17T06:43:51.143Z,10.63
2019-01-17T06:46:19.676Z,7.77
2019-01-17T06:48:48.112Z,7.63
2019-01-17T06:51:16.864Z,8.07
2019-01-17T06:53:45.371Z,7.47
2019-01-17T06:56:13.829Z,7.53
2019-01-17T06:58:42.588Z,6.40
2019-01-17T07:01:11.113Z,6.50
2019-01-17T07:03:39.622Z,6.33
2019-01-17T07:06:08.077Z,8.00
2019-01-17T07:08:36.812Z,7.57
2019-01-17T07:11:05.267Z,7.97
2019-01-17T07:13:33.803Z,8.20
2019-01-17T07:16:02.254Z,6.70
2019-01-17T07:18:30.700Z,7.37
2019-01-17T07:20:59.156Z,7.57
2019-01-17T07:23:27.601Z,5.70
2019-01-17T07:25:56.102Z,7.10
2019-01-17T07:28:24.552Z,7.53
2019-01-17T07:30:52.996Z,8.47
2019-01-17T07:33:21.449Z,8.40
2019-01-17T07:35:49.885Z,10.37
2019-01-17T07:38:18.416Z,8.10
2019-01-17T07:40:46.872Z,6.93
2019-01-17T07:43:15.324Z,7.63
2019-01-17T07:45:44.336Z,8.27
2019-01-17T07:48:12.795Z,5.47
2019-01-17T07:50:41.219Z,6.37
2019-01-17T07:53:09.671Z,5.87
2019-01-17T07:55:38.108Z,6.30
2019-01-17T07:58:06.620Z,6.33
2019-01-17T08:00:35.089Z,4.47
2019-01-17T08:03:03.882Z,5.23
2019-01-17T08:05:32.333Z,5.87
2019-01-17T08:08:00.770Z,4.43
2019-01-17T08:10:29.225Z,4.60
2019-01-17T08:12:57.652Z,6.57
2019-01-17T08:15:26.236Z,3.20
2019-01-17T08:17:54.811Z,3.40
2019-01-17T08:20:24.005Z,4.40
2019-01-17T08:22:52.684Z,4.47
2019-01-17T08:25:21.211Z,3.27
2019-01-17T08:27:49.721Z,3.67
2019-01-17T08:30:23.811Z,5.13
2019-01-17T08:32:52.340Z,5.43
2019-01-17T08:35:20.845Z,2.80
2019-01-17T08:37:49.454Z,3.33
2019-01-17T08:40:23.591Z,5.10
2019-01-17T08:42:52.118Z,4.77
2019-01-17T08:45:20.551Z,4.30
2019-01-17T08:47:49.056Z,3.00
2019-01-17T08:50:17.633Z,3.80
2019-01-17T08:52:46.088Z,4.37
2019-01-17T08:55:14.768Z,3.63
2019-01-17T08:57:43.286Z,3.97
2019-01-17T09:00:20.413Z,3.80
2019-01-17T09:02:48.928Z,3.73
2019-01-17T09:05:17.513Z,3.30
2019-01-17T09:07:46.045Z,4.60
2019-01-17T09:10:20.484Z,3.43
2019-01-17T09:12:49.083Z,3.90
2019-01-17T09:15:20.243Z,3.83
2019-01-17T09:17:48.937Z,3.83
2019-01-17T09:20:17.435Z,2.60
2019-01-17T09:22:45.940Z,5.50
2019-01-17T09:25:15.735Z,3.70
2019-01-17T09:27:44.246Z,1.93
2019-01-17T09:30:17.812Z,2.57
2019-01-17T09:32:46.482Z,3.27
2019-01-17T09:35:16.374Z,2.77
2019-01-17T09:37:44.885Z,1.50
2019-01-17T09:40:15.992Z,2.43
2019-01-17T09:42:44.708Z,4.17
2019-01-17T09:45:13.728Z,3.97
2019-01-17T09:47:42.431Z,3.10
2019-01-17T09:50:19.305Z,1.47
2019-01-17T09:52:47.877Z,3.67
2019-01-17T09:55:16.388Z,2.73
2019-01-17T09:57:44.912Z,1.87
2019-01-17T10:00:18.970Z,3.13
2019-01-17T10:02:47.573Z,3.33
2019-01-17T10:05:16.148Z,2.20
2019-01-17T10:07:44.677Z,2.20
2019-01-17T10:10:15.968Z,7.43
2019-01-17T10:12:44.787Z,1.60
2019-01-17T10:15:16.431Z,5.93
2019-01-17T10:18:05.552Z,4.47
2019-01-17T10:20:43.127Z,13.63
2019-01-17T10:23:18.343Z,7.50
2019-01-17T10:25:49.855Z,4.07
2019-01-17T10:28:42.250Z,3.77
2019-01-17T10:31:22.696Z,6.47
2019-01-17T10:34:03.337Z,2.63
2019-01-17T10:36:43.874Z,3.57
2019-01-17T10:39:47.380Z,4.00
2019-01-17T10:42:21.385Z,2.30
2019-01-17T10:44:52.926Z,3.20
2019-01-17T10:47:39.805Z,5.87
2019-01-17T10:50:28.739Z,3.47
2019-01-17T10:53:12.244Z,5.90
2019-01-17T10:55:49.451Z,3.60
2019-01-17T10:58:42.112Z,5.33
2019-01-17T11:01:34.401Z,6.03
2019-01-17T11:04:26.968Z,6.90
2019-01-17T11:07:19.469Z,5.60
2019-01-17T11:10:07.414Z,5.13
2019-01-17T11:13:01.735Z,3.47
2019-01-17T11:15:51.257Z,5.67
2019-01-17T11:18:25.703Z,7.07
2019-01-17T11:21:14.760Z,4.77
2019-01-17T11:23:51.924Z,4.00
2019-01-17T11:26:34.281Z,3.00
2019-01-17T11:29:20.754Z,4.73
2019-01-17T11:32:08.646Z,7.60
2019-01-17T11:34:40.239Z,6.57
2019-01-17T11:37:26.640Z,7.50
2019-01-17T11:40:10.269Z,2.07
2019-01-17T11:43:17.042Z,3.40
2019-01-17T11:45:51.596Z,2.10
2019-01-17T11:48:23.145Z,2.17
2019-01-17T11:51:00.198Z,2.27
2019-01-17T11:53:51.597Z,2.40
2019-01-17T11:56:41.015Z,1.97
2019-01-17T11:59:26.108Z,2.33
2019-01-17T12:02:04.600Z,2.30
2019-01-17T12:04:32.770Z,3.70
2019-01-17T12:07:04.394Z,2.93
2019-01-17T12:09:32.919Z,2.60
2019-01-17T12:12:01.355Z,2.67
2019-01-17T12:14:29.820Z,2.43
2019-01-17T12:16:58.352Z,2.77
2019-01-17T12:19:26.859Z,3.80
2019-01-17T12:21:55.376Z,3.20
2019-01-17T12:24:23.815Z,3.27
2019-01-17T12:26:52.608Z,3.37
2019-01-17T12:29:21.051Z,3.33
2019-01-17T12:31:49.632Z,4.77
2019-01-17T12:34:18.063Z,4.50
2019-01-17T12:36:46.517Z,2.90
2019-01-17T12:39:15.378Z,3.83
2019-01-17T12:41:43.896Z,3.20
2019-01-17T12:44:12.436Z,3.80
2019-01-17T12:46:40.869Z,3.70
2019-01-17T12:49:09.396Z,4.37
2019-01-17T12:51:37.841Z,4.33
2019-01-17T12:54:06.423Z,6.07
2019-01-17T12:56:34.876Z,6.90
2019-01-17T12:59:03.417Z,6.57
2019-01-17T13:01:31.933Z,6.07
2019-01-17T13:04:00.504Z,7.57
2019-01-17T13:06:28.951Z,7.83
2019-01-17T13:08:57.391Z,7.43
2019-01-17T13:11:25.860Z,8.40
2019-01-17T13:13:54.303Z,8.77
2019-01-17T13:16:23.074Z,7.40
2019-01-17T13:18:51.507Z,8.97
2019-01-17T13:21:20.096Z,9.37
2019-01-17T13:23:48.616Z,9.63
2019-01-17T13:26:17.131Z,9.87
2019-01-17T13:28:45.582Z,8.47
2019-01-17T13:31:14.013Z,8.30
2019-01-17T13:33:42.495Z,12.50
2019-01-17T13:36:11.472Z,10.00
2019-01-17T13:38:40.005Z,12.03
2019-01-17T13:41:08.439Z,13.43
2019-01-17T13:43:36.988Z,10.33
2019-01-17T13:46:05.734Z,10.90
2019-01-17T13:48:34.248Z,8.70
2019-01-17T13:51:02.865Z,5.23
2019-01-17T13:53:31.327Z,1.27
2019-01-17T13:55:59.762Z,2.93
2019-01-17T13:58:28.300Z,1.73
2019-01-17T14:00:56.740Z,4.17
2019-01-17T14:03:25.370Z,1.93
2019-01-17T14:05:53.804Z,2.47
2019-01-17T14:08:22.240Z,2.60
2019-01-17T14:10:50.764Z,3.53
2019-01-17T14:13:19.395Z,4.13
2019-01-17T14:15:47.857Z,7.97
2019-01-17T14:18:16.316Z,6.30
2019-01-17T14:20:45.028Z,6.10
2019-01-17T14:23:13.501Z,5.63
2019-01-17T14:25:41.960Z,4.03
2019-01-17T14:28:10.401Z,5.53
2019-01-17T14:30:39.679Z,5.90
2019-01-17T14:33:08.188Z,4.63
2019-01-17T14:35:36.617Z,5.27
2019-01-17T14:38:05.209Z,3.73
2019-01-17T14:40:33.640Z,4.00
2019-01-17T14:43:02.170Z,5.57
2019-01-17T14:45:30.606Z,2.97
2019-01-17T14:47:59.132Z,4.07
2019-01-17T14:50:30.330Z,3.63
2019-01-17T14:52:58.853Z,6.67
2019-01-17T14:55:27.365Z,5.50
2019-01-17T14:57:56.159Z,4.97
2019-01-17T15:00:32.155Z,1.83
2019-01-17T15:03:00.688Z,2.20
2019-01-17T15:05:29.200Z,4.17
2019-01-17T15:07:57.633Z,4.17
2019-01-17T15:10:32.380Z,6.33
2019-01-17T15:13:00.837Z,3.20
2019-01-17T15:15:29.356Z,5.07
2019-01-17T15:17:57.869Z,6.13
2019-01-17T15:20:26.341Z,4.40
2019-01-17T15:22:54.825Z,10.93
2019-01-17T15:25:23.281Z,3.90
2019-01-17T15:27:51.722Z,1.90
2019-01-17T15:30:22.997Z,2.77
2019-01-17T15:32:51.868Z,4.33
2019-01-17T15:35:20.309Z,4.97
2019-01-17T15:37:48.833Z,2.97
2019-01-17T15:40:20.114Z,8.37
2019-01-17T15:42:48.564Z,2.97
2019-01-17T15:45:17.160Z,7.07
2019-01-17T15:47:45.789Z,3.93
2019-01-17T15:50:16.365Z,4.23
2019-01-17T15:52:45.004Z,7.27
2019-01-17T15:55:15.272Z,8.10
2019-01-17T15:57:44.091Z,9.53
2019-01-17T16:00:21.517Z,5.97
2019-01-17T16:02:49.995Z,6.50
2019-01-17T16:05:18.569Z,9.27
2019-01-17T16:07:47.081Z,4.47
2019-01-17T16:10:16.568Z,7.40
2019-01-17T16:12:45.072Z,9.13
2019-01-17T16:15:18.645Z,7.37
2019-01-17T16:17:47.160Z,9.20
2019-01-17T16:20:17.172Z,8.17
2019-01-17T16:22:46.158Z,7.47
2019-01-17T16:25:18.375Z,6.23
2019-01-17T16:27:52.758Z,6.97
2019-01-17T16:30:19.802Z,9.13
2019-01-17T16:32:48.308Z,7.20
2019-01-17T16:35:16.773Z,6.13
2019-01-17T16:37:45.202Z,5.23
2019-01-17T16:40:15.178Z,6.40
2019-01-17T16:42:43.908Z,8.13
2019-01-17T16:45:21.783Z,6.33
2019-01-17T16:47:50.613Z,5.07
2019-01-17T16:50:21.557Z,6.90
2019-01-17T16:52:50.026Z,5.87
2019-01-17T16:55:18.597Z,3.50
2019-01-17T16:57:49.084Z,3.90
2019-01-17T17:00:20.294Z,4.20
2019-01-17T17:02:48.891Z,3.30
2019-01-17T17:05:17.853Z,5.57
2019-01-17T17:07:46.587Z,3.60
2019-01-17T17:10:15.683Z,6.67
2019-01-17T17:12:44.120Z,6.27
2019-01-17T17:15:13.412Z,6.57
2019-01-17T17:17:41.849Z,5.90
2019-01-17T17:20:13.214Z,4.83
2019-01-17T17:22:41.653Z,7.20
2019-01-17T17:25:10.454Z,7.93
2019-01-17T17:27:38.892Z,7.37
2019-01-17T17:30:24.590Z,6.90
2019-01-17T17:32:53.101Z,13.33
2019-01-17T17:35:21.576Z,6.87
2019-01-17T17:37:50.029Z,6.43
2019-01-17T17:40:26.858Z,11.27
2019-01-17T17:42:55.370Z,5.67
2019-01-17T17:45:23.819Z,9.53
2019-01-17T17:47:52.713Z,11.20
2019-01-17T17:50:22.116Z,9.40
2019-01-17T17:52:50.643Z,13.80
2019-01-17T17:55:19.921Z,12.07
2019-01-17T17:57:48.555Z,15.67
2019-01-17T18:00:28.308Z,19.90
2019-01-17T18:02:56.768Z,12.23
2019-01-17T18:05:25.281Z,18.33
2019-01-17T18:07:53.745Z,21.77
2019-01-17T18:10:22.251Z,24.83
2019-01-17T18:12:50.714Z,11.13
2019-01-17T18:15:19.630Z,9.10
2019-01-17T18:17:48.324Z,7.83
2019-01-17T18:20:17.860Z,10.43
2019-01-17T18:22:46.665Z,7.00
2019-01-17T18:25:15.317Z,10.00
2019-01-17T18:27:43.783Z,14.03
2019-01-17T18:30:15.623Z,7.27
2019-01-17T18:32:44.150Z,6.97
2019-01-17T18:35:13.231Z,15.77
2019-01-17T18:37:41.756Z,9.27
2019-01-17T18:40:18.857Z,13.00
2019-01-17T18:42:47.754Z,9.87
2019-01-17T18:45:22.101Z,12.20
2019-01-17T18:47:50.696Z,12.10
2019-01-17T18:50:24.952Z,11.77
2019-01-17T18:52:53.412Z,10.23
2019-01-17T18:55:21.992Z,10.20
2019-01-17T18:57:50.443Z,11.40
2019-01-17T19:00:25.048Z,11.53
2019-01-17T19:02:53.574Z,10.63
2019-01-17T19:05:23.435Z,10.23
2019-01-17T19:07:52.073Z,7.53
2019-01-17T19:10:21.234Z,9.50
2019-01-17T19:12:50.020Z,10.60
2019-01-17T19:15:26.722Z,11.03
2019-01-17T19:17:55.185Z,12.93
2019-01-17T19:20:23.695Z,13.43
2019-01-17T19:22:52.411Z,13.23
2019-01-17T19:25:21.091Z,15.00
2019-01-17T19:27:49.938Z,12.77
2019-01-17T19:30:26.684Z,14.17
2019-01-17T19:32:55.479Z,14.17
2019-01-17T19:35:24.100Z,15.30
2019-01-17T19:37:52.618Z,16.87
2019-01-17T19:40:24.179Z,20.93
2019-01-17T19:42:52.926Z,15.90
2019-01-17T19:45:21.456Z,14.13
2019-01-17T19:47:49.983Z,14.53
2019-01-17T19:50:27.064Z,16.77
2019-01-17T19:52:55.571Z,16.93
2019-01-17T19:55:24.180Z,14.00
2019-01-17T19:57:52.769Z,16.40
2019-01-17T20:00:21.961Z,14.73
2019-01-17T20:02:50.545Z,15.37
2019-01-17T20:05:21.935Z,19.23
2019-01-17T20:07:50.570Z,17.40
2019-01-17T20:10:27.773Z,16.63
2019-01-17T20:12:56.596Z,14.20
2019-01-17T20:15:25.119Z,18.80
2019-01-17T20:17:53.796Z,25.37
2019-01-17T20:20:22.782Z,21.27
2019-01-17T20:22:51.458Z,17.43
2019-01-17T20:25:20.149Z,16.93
2019-01-17T20:27:48.853Z,16.90
2019-01-17T20:30:23.363Z,20.37
2019-01-17T20:32:53.883Z,18.83
2019-01-17T20:35:22.367Z,14.23
2019-01-17T20:37:50.837Z,19.43
2019-01-17T20:40:21.318Z,19.30
2019-01-17T20:42:50.131Z,17.17
2019-01-17T20:45:18.725Z,13.87
2019-01-17T20:47:47.516Z,15.23
2019-01-17T20:50:21.459Z,13.77
2019-01-17T20:52:49.928Z,16.17
2019-01-17T20:55:18.491Z,19.93
2019-01-17T20:57:48.187Z,16.73
2019-01-17T21:00:20.072Z,16.80
2019-01-17T21:02:48.681Z,17.87
2019-01-17T21:05:17.465Z,16.03
2019-01-17T21:07:46.000Z,15.70
2019-01-17T21:10:16.385Z,18.57
2019-01-17T21:12:45.004Z,15.77
2019-01-17T21:15:14.920Z,16.53
2019-01-17T21:17:43.776Z,20.27
2019-01-17T21:20:13.954Z,16.47
2019-01-17T21:22:42.532Z,18.00
2019-01-17T21:25:18.211Z,17.70
2019-01-17T21:27:46.722Z,20.47
2019-01-17T21:30:18.415Z,18.37
2019-01-17T21:32:46.907Z,19.93
2019-01-17T21:35:15.619Z,23.67
2019-01-17T21:37:44.378Z,19.00
2019-01-17T21:40:15.512Z,20.40
2019-01-17T21:42:44.032Z,18.57
2019-01-17T21:45:14.863Z,18.17
2019-01-17T21:47:43.494Z,19.03
2019-01-17T21:50:31.969Z,19.97
2019-01-17T21:53:01.561Z,19.20
2019-01-17T21:55:30.086Z,14.53
2019-01-17T21:57:58.542Z,18.73
2019-01-17T22:00:28.338Z,19.13
2019-01-17T22:02:57.188Z,14.10
2019-01-17T22:05:25.735Z,12.30
2019-01-17T22:07:54.237Z,16.73
2019-01-17T22:10:22.922Z,11.67
2019-01-17T22:12:51.380Z,9.13
2019-01-17T22:15:24.683Z,12.10
2019-01-17T22:17:53.935Z,9.03
2019-01-17T22:20:22.730Z,12.50
2019-01-17T22:22:51.321Z,9.53
2019-01-17T22:25:20.907Z,8.93
2019-01-17T22:27:51.381Z,8.53
2019-01-17T22:30:25.539Z,6.77
2019-01-17T22:32:54.068Z,8.53
2019-01-17T22:35:22.745Z,9.47
2019-01-17T22:37:51.300Z,10.47
2019-01-17T22:40:19.989Z,9.53
2019-01-17T22:42:48.696Z,10.10
2019-01-17T22:45:25.594Z,11.50
2019-01-17T22:47:54.196Z,10.60
2019-01-17T22:50:22.644Z,17.40
2019-01-17T22:52:51.543Z,13.20
2019-01-17T22:55:19.981Z,15.67
2019-01-17T22:57:48.576Z,15.77
2019-01-17T23:00:20.197Z,14.20
2019-01-17T23:02:48.665Z,14.53
2019-01-17T23:05:17.107Z,19.23
2019-01-17T23:07:45.664Z,20.93
2019-01-17T23:10:14.232Z,20.90
2019-01-17T23:12:42.967Z,16.73
2019-01-17T23:15:11.572Z,25.10
2019-01-17T23:17:40.025Z,22.90
2019-01-17T23:20:10.325Z,20.97
2019-01-17T23:22:38.952Z,20.87
2019-01-17T23:25:26.862Z,24.60
2019-01-17T23:27:57.193Z,24.33
2019-01-17T23:30:25.715Z,21.07
2019-01-17T23:32:54.162Z,20.37
2019-01-17T23:35:22.633Z,23.47
2019-01-17T23:37:51.085Z,22.43
2019-01-17T23:40:19.713Z,24.60
2019-01-17T23:42:48.171Z,21.10
2019-01-17T23:45:16.639Z,27.37
2019-01-17T23:47:45.080Z,28.43
2019-01-17T23:50:13.881Z,23.70
2019-01-17T23:52:42.393Z,21.43
2019-01-17T23:55:11.005Z,18.17
2019-01-17T23:57:39.527Z,23.63
